Time;durP1;ratioP1;P1;durP2;ratioP2;P2;SDS_P1;SDS_P2;PMS_P1;PMS_P2;Temp;Humidity;BMP_temperature;BMP_pressure;BME280_temperature;BME280_humidity;BME280_pressure;Samples;Min_cycle;Max_cycle;Signal;HPM_P1;HPM_P2
2023/02/13 00:00:25;;;;;;;18.90;12.00;;;7.90;99.90;;;;;;5049970;27;20473;-61
2023/02/13 00:02:52;;;;;;;14.67;10.60;;;7.90;99.90;;;;;;5044319;27;20467;-61
2023/02/13 00:05:20;;;;;;;14.37;10.70;;;7.90;99.90;;;;;;5029774;28;20887;-61
2023/02/13 00:07:47;;;;;;;13.07;10.40;;;7.90;99.90;;;;;;5046861;27;20919;-61
2023/02/13 00:10:16;;;;;;;13.40;11.03;;;7.90;99.90;;;;;;5055042;27;20557;-60
2023/02/13 00:12:43;;;;;;;15.30;9.93;;;7.90;99.90;;;;;;5042831;27;20876;-61
2023/02/13 00:15:10;;;;;;;14.40;10.73;;;7.90;99.90;;;;;;5030282;28;20495;-61
2023/02/13 00:17:37;;;;;;;13.30;9.67;;;7.80;99.90;;;;;;5037998;27;20558;-61
2023/02/13 00:20:06;;;;;;;12.70;10.47;;;7.80;99.90;;;;;;5053820;27;20477;-60
2023/02/13 00:22:36;;;;;;;14.10;10.40;;;7.80;99.90;;;;;;5033864;27;20463;-60
2023/02/13 00:25:04;;;;;;;14.23;9.60;;;7.80;99.90;;;;;;5037375;27;20994;-61
2023/02/13 00:27:33;;;;;;;12.70;9.23;;;7.70;99.90;;;;;;5053320;27;20467;-61
2023/02/13 00:30:00;;;;;;;14.30;10.57;;;7.80;99.90;;;;;;5034249;28;20562;-61
2023/02/13 00:32:27;;;;;;;12.17;9.20;;;7.80;99.90;;;;;;5034158;28;20463;-61
2023/02/13 00:34:55;;;;;;;16.17;10.13;;;7.70;99.90;;;;;;5033461;27;20505;-60
2023/02/13 00:37:22;;;;;;;13.50;9.50;;;7.70;99.90;;;;;;5033375;28;20506;-61
2023/02/13 00:39:49;;;;;;;14.93;10.10;;;7.70;99.90;;;;;;5030175;28;20469;-61
2023/02/13 00:42:16;;;;;;;13.93;9.50;;;7.70;1.00;;;;;;5019819;28;20765;-59
2023/02/13 00:44:45;;;;;;;13.80;10.57;;;7.70;1.00;;;;;;5034210;28;20831;-60
2023/02/13 00:47:13;;;;;;;13.03;9.07;;;7.70;1.00;;;;;;5036151;28;20957;-61
2023/02/13 00:49:41;;;;;;;15.63;9.50;;;7.70;1.00;;;;;;5051839;27;20459;-60
2023/02/13 00:52:08;;;;;;;12.67;9.77;;;7.70;1.00;;;;;;5107872;27;20459;-60
2023/02/13 00:54:35;;;;;;;17.27;10.40;;;7.70;1.00;;;;;;5032573;28;20945;-61
2023/02/13 00:57:04;;;;;;;13.40;9.50;;;7.70;99.90;;;;;;5033607;28;20581;-60
2023/02/13 00:59:31;;;;;;;14.00;9.73;;;7.70;99.90;;;;;;5032679;28;20467;-60
2023/02/13 01:02:00;;;;;;;12.80;9.63;;;7.70;1.00;;;;;;5034429;28;20463;-61
2023/02/13 01:04:27;;;;;;;10.70;8.20;;;7.70;1.00;;;;;;5033054;28;20554;-61
2023/02/13 01:06:54;;;;;;;11.50;9.10;;;7.70;99.90;;;;;;5033312;28;20883;-61
2023/02/13 01:09:21;;;;;;;10.83;8.30;;;7.70;99.90;;;;;;5040660;28;20470;-61
2023/02/13 01:11:48;;;;;;;11.07;8.60;;;7.70;99.90;;;;;;5033476;28;20463;-61
2023/02/13 01:14:16;;;;;;;10.80;7.97;;;7.70;99.90;;;;;;5033521;28;20522;-61
2023/02/13 01:16:43;;;;;;;10.73;7.80;;;7.70;99.90;;;;;;5033724;28;20550;-61
2023/02/13 01:19:11;;;;;;;10.40;8.10;;;7.60;99.90;;;;;;5034190;28;20473;-61
2023/02/13 01:21:38;;;;;;;9.93;7.70;;;7.60;99.90;;;;;;5033676;28;20467;-60
2023/02/13 01:24:06;;;;;;;12.20;8.67;;;7.60;99.90;;;;;;5014291;28;20462;-60
2023/02/13 01:26:33;;;;;;;10.57;7.30;;;7.60;99.90;;;;;;5017661;28;20946;-58
2023/02/13 01:29:00;;;;;;;9.57;7.63;;;7.60;99.90;;;;;;5033638;28;20764;-61
2023/02/13 01:31:28;;;;;;;11.73;8.83;;;7.50;99.90;;;;;;5033980;28;20906;-60
2023/02/13 01:33:57;;;;;;;10.47;7.97;;;7.50;99.90;;;;;;5033996;28;20847;-61
2023/02/13 01:36:26;;;;;;;9.23;7.73;;;7.50;99.90;;;;;;5033492;28;20474;-60
2023/02/13 01:38:54;;;;;;;9.90;7.50;;;7.50;99.90;;;;;;5032811;28;21003;-61
2023/02/13 01:41:22;;;;;;;10.60;8.73;;;7.40;99.90;;;;;;5033403;28;20465;-61
2023/02/13 01:43:53;;;;;;;11.53;7.73;;;7.30;99.90;;;;;;5033392;28;20467;-58
2023/02/13 01:46:26;;;;;;;10.00;7.70;;;7.30;99.90;;;;;;5035674;28;20922;-58
2023/02/13 01:48:57;;;;;;;10.00;7.60;;;7.30;1.00;;;;;;5036289;28;20514;-60
2023/02/13 01:51:33;;;;;;;12.00;8.50;;;7.40;1.00;;;;;;5036838;28;20458;-59
2023/02/13 01:54:04;;;;;;;9.67;7.30;;;7.30;1.00;;;;;;5036725;28;20491;-58
2023/02/13 01:56:36;;;;;;;10.43;7.67;;;7.30;1.00;;;;;;5036727;28;20465;-59
2023/02/13 01:59:07;;;;;;;10.63;7.77;;;7.30;1.00;;;;;;5036293;28;20838;-58
2023/02/13 02:01:35;;;;;;;9.50;7.20;;;7.30;1.00;;;;;;5035503;28;20463;-58
2023/02/13 02:04:09;;;;;;;10.30;7.50;;;7.30;1.00;;;;;;5035466;28;20469;-56
2023/02/13 02:06:41;;;;;;;12.10;8.50;;;7.30;1.00;;;;;;5035325;28;20469;-59
2023/02/13 02:09:14;;;;;;;11.63;7.83;;;7.30;1.00;;;;;;5034410;28;20926;-59
2023/02/13 02:11:48;;;;;;;10.60;7.33;;;7.30;1.00;;;;;;5035536;28;20498;-59
2023/02/13 02:14:16;;;;;;;9.10;7.03;;;7.30;1.00;;;;;;5034540;28;20947;-58
2023/02/13 02:16:43;;;;;;;10.10;7.80;;;7.30;1.00;;;;;;5034529;28;20463;-58
2023/02/13 02:19:18;;;;;;;10.30;7.17;;;7.30;1.00;;;;;;5036149;28;20499;-58
2023/02/13 02:22:26;;;;;;;9.67;7.73;;;7.20;1.00;;;;;;5036981;28;20553;-61
2023/02/13 02:25:37;;;;;;;10.03;7.70;;;7.20;1.00;;;;;;5056560;28;20894;-58
2023/02/13 02:28:44;;;;;;;9.50;6.87;;;7.20;1.00;;;;;;5025671;28;20473;-59
2023/02/13 02:31:59;;;;;;;10.20;7.50;;;7.20;1.00;;;;;;5036254;28;20459;-59
2023/02/13 02:34:37;;;;;;;9.80;7.30;;;7.10;1.00;;;;;;5017069;28;20595;-61
2023/02/13 02:37:16;;;;;;;9.97;6.70;;;7.10;1.00;;;;;;5032604;28;20546;-60
2023/02/13 02:39:53;;;;;;;8.33;6.63;;;7.10;1.00;;;;;;5016789;28;20463;-61
2023/02/13 02:42:30;;;;;;;8.03;5.87;;;7.10;1.00;;;;;;5035201;28;20473;-61
2023/02/13 02:45:05;;;;;;;7.30;6.00;;;7.00;1.00;;;;;;5035858;28;20823;-60
2023/02/13 02:50:34;;;;;;;6.33;4.80;;;7.00;1.00;;;;;;5036007;28;20465;-58
2023/02/13 02:53:28;;;;;;;9.20;5.63;;;6.90;99.90;;;;;;5034715;28;20461;-57
2023/02/13 02:56:02;;;;;;;8.13;6.40;;;6.90;99.90;;;;;;5036195;28;20495;-61
2023/02/13 03:07:07;;;;;;;6.50;5.77;;;6.70;1.00;;;;;;5035878;28;20850;-59
2023/02/13 03:15:14;;;;;;;8.77;5.80;;;6.80;1.00;;;;;;5035371;28;20950;-61
2023/02/13 03:23:34;;;;;;;8.97;6.67;;;6.80;1.00;;;;;;5034776;28;20451;-61
2023/02/13 03:26:48;;;;;;;10.27;7.03;;;6.80;1.00;;;;;;5035242;28;20766;-61
2023/02/13 03:32:21;;;;;;;10.00;7.13;;;6.90;1.00;;;;;;5035228;28;20455;-61
2023/02/13 03:38:00;;;;;;;10.47;7.50;;;6.80;1.00;;;;;;4965888;28;20890;-60
2023/02/13 03:40:33;;;;;;;11.00;6.97;;;6.80;1.00;;;;;;5022633;28;20834;-60
2023/02/13 03:43:06;;;;;;;9.03;6.70;;;6.80;1.00;;;;;;5032062;28;20729;-58
2023/02/13 03:45:54;;;;;;;9.90;7.27;;;6.90;1.00;;;;;;5035059;28;20541;-61
2023/02/13 03:51:16;;;;;;;10.80;8.17;;;6.80;1.00;;;;;;5034415;28;20536;-61
2023/02/13 03:53:47;;;;;;;10.73;8.00;;;6.80;1.00;;;;;;5033088;28;20806;-59
2023/02/13 03:59:16;;;;;;;10.43;7.60;;;6.80;36.00;;;;;;5033247;28;20516;-61
2023/02/13 04:01:49;;;;;;;10.47;7.67;;;6.90;23.40;;;;;;5033824;28;20923;-60
2023/02/13 04:04:25;;;;;;;11.90;8.27;;;6.90;23.90;;;;;;5033162;28;20921;-59
2023/02/13 04:06:57;;;;;;;11.77;8.33;;;6.90;28.90;;;;;;5034022;28;20895;-58
2023/02/13 04:09:27;;;;;;;12.33;8.60;;;6.80;99.90;;;;;;5034507;28;20970;-61
2023/02/13 04:12:02;;;;;;;12.57;8.37;;;6.80;99.80;;;;;;5034998;28;20470;-61
2023/02/13 04:14:36;;;;;;;13.10;9.63;;;6.80;99.90;;;;;;5034624;28;20463;-61
2023/02/13 04:17:06;;;;;;;12.90;9.20;;;6.80;99.90;;;;;;5034849;28;20494;-60
2023/02/13 04:19:34;;;;;;;12.23;8.57;;;6.70;99.90;;;;;;5035096;28;20558;-59
2023/02/13 04:22:02;;;;;;;13.70;8.83;;;6.80;99.90;;;;;;5034886;28;20778;-60
2023/02/13 04:24:31;;;;;;;12.77;8.53;;;6.80;99.90;;;;;;5035026;28;20469;-58
2023/02/13 04:26:58;;;;;;;12.20;8.87;;;6.90;1.00;;;;;;5034221;28;20565;-60
2023/02/13 04:29:26;;;;;;;12.83;9.23;;;6.80;99.90;;;;;;5034773;28;20470;-61
2023/02/13 04:31:54;;;;;;;13.20;9.03;;;6.80;99.90;;;;;;5034156;28;20463;-59
2023/02/13 04:34:21;;;;;;;12.60;9.00;;;6.80;99.90;;;;;;5034910;28;20475;-60
2023/02/13 04:36:48;;;;;;;14.73;9.07;;;6.80;99.90;;;;;;5033258;28;20497;-61
2023/02/13 04:39:15;;;;;;;14.80;8.60;;;6.80;99.90;;;;;;5033971;28;20474;-57
2023/02/13 04:41:44;;;;;;;15.20;8.83;;;6.80;99.90;;;;;;5034044;28;20557;-60
2023/02/13 04:44:12;;;;;;;15.70;9.53;;;6.80;99.90;;;;;;5034568;28;20767;-60
2023/02/13 04:46:39;;;;;;;16.40;9.40;;;6.90;99.90;;;;;;5034240;28;20640;-57
2023/02/13 04:49:06;;;;;;;11.70;8.77;;;6.80;99.90;;;;;;5033817;28;20469;-60
2023/02/13 04:51:33;;;;;;;14.50;10.27;;;6.80;99.90;;;;;;5034385;28;20520;-58
2023/02/13 04:54:00;;;;;;;15.57;10.43;;;6.80;99.90;;;;;;5034038;28;20494;-61
2023/02/13 04:56:28;;;;;;;18.17;11.70;;;6.80;99.90;;;;;;5034524;28;20788;-60
2023/02/13 04:58:56;;;;;;;15.40;10.60;;;6.70;99.90;;;;;;5033412;28;20465;-58
2023/02/13 05:01:24;;;;;;;13.00;8.80;;;6.80;99.90;;;;;;5048861;28;20896;-59
2023/02/13 05:03:51;;;;;;;15.17;10.23;;;6.80;99.90;;;;;;5031496;28;20506;-58
2023/02/13 05:06:18;;;;;;;13.30;9.70;;;6.80;99.90;;;;;;5089308;28;20541;-61
2023/02/13 05:08:45;;;;;;;13.70;9.83;;;6.90;99.90;;;;;;5049799;28;20464;-59
2023/02/13 05:11:12;;;;;;;14.77;9.47;;;6.80;99.90;;;;;;5025644;28;20555;-60
2023/02/13 05:13:39;;;;;;;14.27;10.43;;;6.80;99.90;;;;;;5022231;28;20850;-60
2023/02/13 05:16:08;;;;;;;14.50;10.93;;;6.80;99.90;;;;;;5039429;28;20513;-60
2023/02/13 05:18:35;;;;;;;13.30;9.77;;;6.80;99.90;;;;;;5033251;28;20896;-59
2023/02/13 05:23:47;;;;;;;12.23;8.43;;;6.80;1.00;;;;;;5037150;28;20756;-61
2023/02/13 05:26:14;;;;;;;16.50;10.67;;;6.80;1.00;;;;;;5041257;28;20769;-58
2023/02/13 05:31:27;;;;;;;15.83;10.40;;;6.80;1.00;;;;;;5048458;27;21707;-60
2023/02/13 05:33:54;;;;;;;16.60;10.73;;;6.80;1.00;;;;;;5036910;28;20460;-60
2023/02/13 05:36:22;;;;;;;15.50;10.57;;;6.70;1.00;;;;;;5024107;28;20491;-60
2023/02/13 05:38:49;;;;;;;13.47;10.13;;;6.70;1.00;;;;;;5033341;28;20504;-58
2023/02/13 05:41:16;;;;;;;12.87;9.63;;;6.70;1.00;;;;;;5031546;28;20561;-60
2023/02/13 05:43:43;;;;;;;13.80;10.13;;;6.70;1.00;;;;;;5029026;28;20753;-61
2023/02/13 05:46:11;;;;;;;13.90;10.23;;;6.60;1.00;;;;;;5018564;28;20451;-61
2023/02/13 05:48:39;;;;;;;15.70;10.60;;;6.60;1.00;;;;;;5038193;28;20557;-61
2023/02/13 05:51:07;;;;;;;13.90;10.57;;;6.60;1.00;;;;;;5035615;28;20772;-59
2023/02/13 05:53:35;;;;;;;16.77;11.57;;;6.50;1.00;;;;;;5031756;28;20494;-58
2023/02/13 05:56:02;;;;;;;15.13;10.47;;;6.50;56.60;;;;;;5027529;28;20501;-58
2023/02/13 05:58:30;;;;;;;14.83;11.27;;;6.50;18.70;;;;;;5028240;28;20468;-60
2023/02/13 06:00:58;;;;;;;14.83;10.30;;;6.50;1.00;;;;;;5027822;28;20946;-61
2023/02/13 06:03:26;;;;;;;17.53;10.77;;;6.40;76.00;;;;;;5031091;28;20475;-59
2023/02/13 06:05:55;;;;;;;16.37;11.03;;;6.40;99.90;;;;;;5033722;28;20516;-61
2023/02/13 06:08:22;;;;;;;15.07;11.20;;;6.40;99.90;;;;;;5034372;28;20546;-61
2023/02/13 06:10:50;;;;;;;14.73;10.00;;;6.40;99.90;;;;;;5034786;28;20715;-60
2023/02/13 06:13:18;;;;;;;16.07;11.27;;;6.40;99.90;;;;;;5033016;28;20555;-60
2023/02/13 06:15:45;;;;;;;20.30;15.70;;;6.40;99.90;;;;;;5034038;28;20526;-60
2023/02/13 06:18:12;;;;;;;15.63;11.93;;;6.40;99.90;;;;;;5034528;28;20473;-61
2023/02/13 06:20:39;;;;;;;17.53;13.43;;;6.30;99.90;;;;;;5033232;27;20456;-61
2023/02/13 06:23:08;;;;;;;15.23;11.47;;;6.30;99.90;;;;;;5032776;28;20635;-57
2023/02/13 06:25:35;;;;;;;18.10;13.13;;;6.20;99.90;;;;;;5033279;28;20458;-61
2023/02/13 06:28:03;;;;;;;13.80;11.23;;;6.20;99.90;;;;;;5033527;28;20933;-61
2023/02/13 06:30:31;;;;;;;16.00;12.30;;;6.30;1.00;;;;;;5033497;28;20809;-62
2023/02/13 06:32:58;;;;;;;17.40;12.60;;;6.30;99.90;;;;;;5032327;28;20455;-62
2023/02/13 06:35:25;;;;;;;17.93;11.00;;;6.20;99.90;;;;;;5032209;28;20491;-61
2023/02/13 06:37:52;;;;;;;18.47;11.87;;;6.20;99.90;;;;;;5035281;28;20562;-62
2023/02/13 06:40:21;;;;;;;18.17;12.63;;;6.10;99.90;;;;;;5033702;28;20911;-62
2023/02/13 06:42:48;;;;;;;19.73;13.67;;;6.00;99.90;;;;;;5033897;28;20460;-62
2023/02/13 06:45:16;;;;;;;16.80;12.70;;;6.00;99.90;;;;;;5033719;28;20520;-62
2023/02/13 06:47:44;;;;;;;16.33;11.87;;;5.90;1.00;;;;;;5034548;28;20554;-61
2023/02/13 06:50:12;;;;;;;18.60;12.33;;;5.90;1.00;;;;;;5033812;28;20438;-63
2023/02/13 06:52:39;;;;;;;18.33;11.90;;;6.00;1.00;;;;;;5034515;28;20463;-61
2023/02/13 06:55:07;;;;;;;16.60;11.90;;;6.00;53.00;;;;;;5033458;28;20501;-61
2023/02/13 06:57:36;;;;;;;17.07;11.90;;;6.00;1.00;;;;;;5035070;28;20475;-61
2023/02/13 07:00:04;;;;;;;17.90;12.23;;;5.90;1.00;;;;;;5033644;28;20460;-62
2023/02/13 07:02:32;;;;;;;15.00;12.13;;;5.90;44.40;;;;;;5033918;28;20441;-62
2023/02/13 07:04:59;;;;;;;16.93;11.53;;;5.80;99.90;;;;;;5026549;28;20476;-62
2023/02/13 07:07:26;;;;;;;17.53;12.43;;;5.70;99.90;;;;;;5032902;28;20463;-62
2023/02/13 07:09:53;;;;;;;12.77;10.57;;;5.70;1.00;;;;;;5033307;28;20476;-62
2023/02/13 07:12:20;;;;;;;14.83;11.13;;;5.70;99.90;;;;;;5034335;28;20463;-62
2023/02/13 07:14:49;;;;;;;16.53;10.90;;;5.70;17.40;;;;;;5032625;28;20559;-62
2023/02/13 07:17:16;;;;;;;15.43;12.17;;;5.70;99.90;;;;;;5035823;28;20495;-62
2023/02/13 07:19:44;;;;;;;19.50;12.60;;;5.70;1.00;;;;;;5034384;28;20892;-62
2023/02/13 07:22:11;;;;;;;15.13;11.50;;;5.80;99.90;;;;;;5016847;28;20479;-62
2023/02/13 07:24:38;;;;;;;15.70;12.07;;;5.70;99.90;;;;;;5027254;28;20470;-61
2023/02/13 07:27:05;;;;;;;17.00;12.23;;;5.80;99.40;;;;;;5034928;28;20773;-62
2023/02/13 07:29:32;;;;;;;17.60;12.13;;;5.80;1.00;;;;;;5031781;28;20479;-62
2023/02/13 07:32:01;;;;;;;16.00;11.43;;;5.80;1.00;;;;;;5030713;28;20475;-62
2023/02/13 07:34:28;;;;;;;15.37;11.50;;;5.70;99.90;;;;;;5033000;28;20566;-62
2023/02/13 07:36:55;;;;;;;15.93;11.00;;;5.70;99.90;;;;;;5034089;28;20491;-62
2023/02/13 07:39:22;;;;;;;14.10;10.63;;;5.80;1.00;;;;;;5034204;28;20470;-62
2023/02/13 07:41:51;;;;;;;15.63;11.43;;;5.70;1.00;;;;;;5033551;28;20772;-62
2023/02/13 07:44:18;;;;;;;14.87;10.73;;;5.80;1.00;;;;;;5033486;28;20757;-62
2023/02/13 07:46:45;;;;;;;15.13;11.07;;;5.80;1.00;;;;;;5029988;28;20485;-61
2023/02/13 07:49:14;;;;;;;14.50;10.77;;;5.90;99.90;;;;;;5033461;28;20765;-63
2023/02/13 07:51:41;;;;;;;13.23;10.87;;;5.90;99.90;;;;;;5032848;28;20471;-62
2023/02/13 07:54:08;;;;;;;13.07;10.07;;;6.00;44.70;;;;;;5033074;28;20536;-62
2023/02/13 07:56:35;;;;;;;15.10;10.30;;;6.00;1.00;;;;;;5033224;28;20483;-62
2023/02/13 07:59:02;;;;;;;16.47;12.00;;;6.00;99.90;;;;;;5033521;28;20485;-63
2023/02/13 08:01:30;;;;;;;15.40;11.37;;;6.10;99.90;;;;;;5032972;28;20467;-63
2023/02/13 08:03:57;;;;;;;14.80;11.17;;;6.10;99.90;;;;;;5033069;28;20837;-61
2023/02/13 08:06:26;;;;;;;14.47;11.53;;;6.20;99.90;;;;;;5032750;28;20448;-61
2023/02/13 08:11:52;;;;;;;15.10;11.33;;;6.30;83.60;;;;;;5032662;28;20940;-62
2023/02/13 08:11:54;;;;;;;16.20;11.50;;;6.40;27.70;;;;;;5033548;28;20465;-62
2023/02/13 08:14:22;;;;;;;12.73;9.90;;;6.60;5.20;;;;;;5033125;28;20888;-61
2023/02/13 08:16:49;;;;;;;15.10;11.17;;;6.80;99.90;;;;;;5033832;28;20590;-62
2023/02/13 08:19:16;;;;;;;14.10;10.10;;;7.00;99.90;;;;;;5034436;28;20896;-61
2023/02/13 08:21:45;;;;;;;13.00;9.97;;;7.30;99.90;;;;;;5034612;28;20456;-62
2023/02/13 08:24:13;;;;;;;13.80;11.20;;;7.50;1.00;;;;;;5035020;28;20942;-61
2023/02/13 08:26:40;;;;;;;12.87;9.50;;;7.70;99.90;;;;;;5034334;28;20554;-61
2023/02/13 08:29:07;;;;;;;13.80;10.07;;;7.80;1.00;;;;;;5037495;27;20562;-62
2023/02/13 08:31:35;;;;;;;13.07;10.10;;;8.10;20.20;;;;;;5034486;28;20503;-62
2023/02/13 08:34:02;;;;;;;11.50;9.23;;;8.40;1.00;;;;;;5034658;28;20558;-62
2023/02/13 08:36:29;;;;;;;10.83;8.80;;;8.50;1.00;;;;;;5034503;28;20466;-62
2023/02/13 08:38:58;;;;;;;12.00;9.03;;;8.70;1.00;;;;;;5032997;28;20994;-62
2023/02/13 08:41:25;;;;;;;10.50;8.20;;;8.90;1.00;;;;;;5033096;28;20468;-62
2023/02/13 08:43:54;;;;;;;10.43;8.10;;;9.00;1.00;;;;;;5034561;28;20545;-62
2023/02/13 08:46:21;;;;;;;11.80;8.90;;;9.30;1.00;;;;;;5034836;28;20464;-62
2023/02/13 08:48:49;;;;;;;12.80;9.83;;;9.40;1.00;;;;;;5032613;28;20463;-62
2023/02/13 08:51:16;;;;;;;11.50;9.17;;;9.60;1.00;;;;;;5032750;28;20765;-62
2023/02/13 08:53:43;;;;;;;10.43;8.47;;;9.80;1.00;;;;;;5030793;28;20966;-62
2023/02/13 08:56:12;;;;;;;13.40;9.57;;;10.00;1.00;;;;;;5030477;28;20479;-62
2023/02/13 08:58:39;;;;;;;11.57;8.50;;;10.30;1.00;;;;;;5030296;28;20549;-62
2023/02/13 09:01:07;;;;;;;11.60;9.00;;;10.60;1.00;;;;;;5030960;28;20462;-62
2023/02/13 09:03:35;;;;;;;10.23;8.43;;;10.70;1.00;;;;;;5018561;28;20463;-62
2023/02/13 09:06:03;;;;;;;9.73;8.47;;;10.80;1.00;;;;;;5026429;28;20927;-62
2023/02/13 09:08:30;;;;;;;9.90;8.30;;;10.80;1.00;;;;;;5017917;28;20475;-62
2023/02/13 09:11:00;;;;;;;9.53;8.27;;;11.00;1.00;;;;;;5023562;28;20955;-62
2023/02/13 09:13:31;;;;;;;12.33;9.40;;;11.20;1.00;;;;;;5031927;28;20483;-62
2023/02/13 09:16:00;;;;;;;9.43;8.33;;;11.40;1.00;;;;;;5035072;28;20889;-62
2023/02/13 09:18:28;;;;;;;10.70;8.80;;;11.50;1.00;;;;;;5033201;28;20459;-62
2023/02/13 09:21:00;;;;;;;10.70;8.60;;;11.30;1.00;;;;;;5032339;28;20888;-62
2023/02/13 09:23:27;;;;;;;10.37;8.17;;;11.50;1.00;;;;;;5033922;28;20467;-62
2023/02/13 09:25:54;;;;;;;10.73;8.57;;;11.70;1.00;;;;;;5033882;28;20467;-62
2023/02/13 09:28:21;;;;;;;8.33;7.47;;;12.00;1.00;;;;;;5028383;28;20467;-62
2023/02/13 09:30:50;;;;;;;9.50;7.77;;;12.10;1.00;;;;;;5025134;28;20468;-62
2023/02/13 09:33:17;;;;;;;8.93;7.30;;;12.20;1.00;;;;;;5026020;28;20480;-62
2023/02/13 09:35:44;;;;;;;10.17;7.77;;;12.30;1.00;;;;;;5016933;28;20483;-62
2023/02/13 09:38:12;;;;;;;9.40;8.20;;;12.20;1.00;;;;;;5023874;28;20902;-62
2023/02/13 09:40:45;;;;;;;9.27;8.37;;;12.50;1.00;;;;;;5019198;28;20796;-62
2023/02/13 09:43:16;;;;;;;8.90;7.87;;;12.80;1.00;;;;;;5025710;28;20528;-63
2023/02/13 09:45:46;;;;;;;8.30;7.50;;;12.80;1.00;;;;;;5026544;28;20472;-62
2023/02/13 09:48:24;;;;;;;9.03;8.00;;;12.80;99.90;;;;;;5019737;28;20472;-63
2023/02/13 09:50:51;;;;;;;9.60;7.80;;;13.00;99.90;;;;;;5021028;28;20482;-62
2023/02/13 09:53:23;;;;;;;10.03;7.57;;;13.00;99.90;;;;;;5019667;28;20494;-62
2023/02/13 09:55:59;;;;;;;10.90;8.70;;;13.10;99.90;;;;;;5030834;28;20910;-62
2023/02/13 09:58:38;;;;;;;9.40;8.40;;;13.20;99.90;;;;;;5013455;28;20498;-62
2023/02/13 10:01:16;;;;;;;10.40;8.93;;;13.40;99.90;;;;;;5026519;28;20467;-62
2023/02/13 10:03:51;;;;;;;15.23;10.10;;;13.80;99.90;;;;;;5012534;28;20566;-62
2023/02/13 10:06:24;;;;;;;14.10;10.60;;;14.00;99.90;;;;;;5013516;28;20475;-62
2023/02/13 10:09:03;;;;;;;10.20;9.20;;;14.10;99.90;;;;;;5017060;28;20467;-62
2023/02/13 10:12:00;;;;;;;13.10;8.10;;;14.30;99.90;;;;;;5029456;28;20472;-62
2023/02/13 10:14:35;;;;;;;8.73;7.50;;;14.50;99.90;;;;;;5037093;28;20467;-62
2023/02/13 10:17:08;;;;;;;9.83;8.63;;;14.60;99.90;;;;;;5039471;27;20497;-62
2023/02/13 10:19:42;;;;;;;8.77;7.87;;;14.50;99.90;;;;;;5030336;28;20912;-61
2023/02/13 10:22:16;;;;;;;8.23;7.33;;;14.50;99.90;;;;;;5026713;28;20467;-62
2023/02/13 10:24:48;;;;;;;8.07;7.23;;;14.80;99.90;;;;;;5035123;28;20459;-62
2023/02/13 10:27:22;;;;;;;8.23;7.00;;;14.90;99.90;;;;;;5023291;28;20779;-62
2023/02/13 10:30:05;;;;;;;8.50;7.60;;;15.20;99.90;;;;;;5034816;28;20463;-62
2023/02/13 10:32:42;;;;;;;8.90;7.80;;;15.50;99.90;;;;;;5034420;28;20471;-62
2023/02/13 10:35:20;;;;;;;8.10;7.30;;;15.70;99.90;;;;;;5034844;28;21274;-62
2023/02/13 10:37:51;;;;;;;8.13;7.33;;;15.90;99.90;;;;;;5034720;28;20487;-62
2023/02/13 10:40:19;;;;;;;13.20;8.37;;;16.10;99.90;;;;;;5033084;28;20557;-62
2023/02/13 10:42:52;;;;;;;7.80;6.83;;;16.30;99.90;;;;;;5032815;28;20474;-62
2023/02/13 10:45:44;;;;;;;9.23;7.33;;;16.30;99.90;;;;;;5032279;28;20518;-62
2023/02/13 10:48:27;;;;;;;8.30;7.43;;;16.40;99.90;;;;;;5028644;28;20467;-62
2023/02/13 10:51:00;;;;;;;8.20;7.10;;;16.70;99.90;;;;;;5032971;28;20474;-61
2023/02/13 10:53:39;;;;;;;9.00;7.87;;;16.70;99.90;;;;;;5032156;28;20547;-62
2023/02/13 10:56:25;;;;;;;8.17;7.37;;;16.60;99.90;;;;;;5033501;28;20454;-60
2023/02/13 10:59:06;;;;;;;7.37;6.67;;;16.80;99.90;;;;;;5034330;28;20469;-62
2023/02/13 11:01:39;;;;;;;7.80;6.73;;;16.80;99.90;;;;;;5035273;28;20947;-61
2023/02/13 11:04:10;;;;;;;7.73;6.80;;;16.90;99.90;;;;;;5034984;28;20546;-61
2023/02/13 11:06:43;;;;;;;7.33;6.63;;;17.10;99.90;;;;;;5032322;28;20483;-62
2023/02/13 11:09:12;;;;;;;7.13;6.40;;;17.40;99.90;;;;;;5035176;28;20462;-62
2023/02/13 11:11:42;;;;;;;7.30;6.60;;;17.70;99.90;;;;;;5032016;28;20902;-62
2023/02/13 11:14:13;;;;;;;7.70;6.30;;;17.60;99.90;;;;;;5030945;28;20558;-62
2023/02/13 11:16:44;;;;;;;7.17;6.47;;;17.70;99.90;;;;;;5032229;28;20524;-62
2023/02/13 11:19:20;;;;;;;8.63;7.73;;;17.60;99.90;;;;;;5029197;28;20471;-63
2023/02/13 11:21:54;;;;;;;8.03;7.00;;;17.40;99.90;;;;;;5015953;28;20475;-62
2023/02/13 11:24:23;;;;;;;7.23;6.53;;;17.50;99.90;;;;;;5034689;28;20451;-60
2023/02/13 11:26:53;;;;;;;8.10;7.40;;;17.70;99.90;;;;;;5031495;28;20753;-62
2023/02/13 11:29:25;;;;;;;8.37;7.57;;;18.00;99.90;;;;;;5031581;28;20468;-63
2023/02/13 11:32:04;;;;;;;7.80;7.10;;;18.20;99.90;;;;;;5029465;28;20503;-63
2023/02/13 11:34:33;;;;;;;8.13;7.43;;;18.20;99.90;;;;;;5031422;28;20459;-63
2023/02/13 11:37:32;;;;;;;7.70;6.90;;;18.20;99.90;;;;;;5031391;28;20491;-63
2023/02/13 11:40:20;;;;;;;7.53;6.83;;;18.30;99.90;;;;;;4984462;28;20458;-59
2023/02/13 11:42:51;;;;;;;8.27;6.10;;;18.40;99.90;;;;;;5027537;28;20897;-63
2023/02/13 11:45:23;;;;;;;7.20;6.27;;;18.70;99.90;;;;;;5030298;28;20534;-63
2023/02/13 11:47:50;;;;;;;6.60;5.50;;;18.70;99.90;;;;;;5030709;28;20460;-63
2023/02/13 11:50:25;;;;;;;7.70;7.00;;;18.90;99.90;;;;;;5033614;28;20553;-63
2023/02/13 11:53:00;;;;;;;6.33;5.83;;;18.70;99.90;;;;;;5034219;28;20465;-63
2023/02/13 11:55:30;;;;;;;7.80;7.00;;;18.40;99.90;;;;;;5034922;28;20935;-63
2023/02/13 11:58:00;;;;;;;7.53;6.83;;;18.50;99.90;;;;;;5034498;28;20583;-63
2023/02/13 12:00:36;;;;;;;9.00;6.87;;;18.70;99.90;;;;;;5034736;28;20465;-63
2023/02/13 12:03:23;;;;;;;6.40;5.50;;;19.10;99.90;;;;;;5034564;28;20561;-63
2023/02/13 12:06:02;;;;;;;6.23;5.60;;;19.20;99.90;;;;;;5035228;28;20459;-63
2023/02/13 12:08:32;;;;;;;6.90;6.20;;;19.50;99.90;;;;;;5034319;28;20463;-63
2023/02/13 12:11:00;;;;;;;5.90;5.33;;;19.40;99.90;;;;;;5034567;28;20470;-63
2023/02/13 12:13:32;;;;;;;6.07;5.47;;;19.30;99.90;;;;;;5034302;28;20565;-63
2023/02/13 12:16:03;;;;;;;7.10;5.97;;;19.40;99.90;;;;;;5035262;28;20939;-62
2023/02/13 12:18:34;;;;;;;6.13;5.53;;;19.40;99.90;;;;;;5033713;28;20798;-63
2023/02/13 12:21:11;;;;;;;5.80;5.20;;;19.30;99.90;;;;;;5033765;28;20467;-62
2023/02/13 12:23:49;;;;;;;6.43;5.47;;;19.50;99.90;;;;;;5034860;28;20465;-63
2023/02/13 12:26:28;;;;;;;5.50;5.00;;;19.50;99.90;;;;;;5034925;28;20469;-62
2023/02/13 12:29:14;;;;;;;8.10;5.50;;;19.50;99.90;;;;;;5033409;28;20469;-63
2023/02/13 12:31:55;;;;;;;5.50;5.00;;;19.60;99.90;;;;;;5032068;28;20609;-61
2023/02/13 12:35:02;;;;;;;5.80;4.90;;;19.60;99.90;;;;;;5033050;28;20463;-62
2023/02/13 12:37:51;;;;;;;6.43;5.83;;;19.50;99.90;;;;;;5032461;28;20585;-62
2023/02/13 12:40:39;;;;;;;6.07;5.40;;;19.00;99.90;;;;;;5032189;28;20455;-63
2023/02/13 12:43:39;;;;;;;6.40;5.67;;;19.30;99.90;;;;;;5032491;28;20455;-63
2023/02/13 12:46:13;;;;;;;7.10;6.03;;;19.30;99.90;;;;;;5092314;27;20450;-63
2023/02/13 12:48:50;;;;;;;7.40;5.17;;;19.40;99.90;;;;;;5116764;27;20455;-63
2023/02/13 12:51:36;;;;;;;6.40;5.80;;;19.50;99.90;;;;;;5032364;28;20485;-63
2023/02/13 12:54:37;;;;;;;7.70;5.60;;;19.40;99.90;;;;;;5032070;28;20495;-63
2023/02/13 12:57:16;;;;;;;5.87;5.37;;;19.30;99.90;;;;;;5033484;28;20481;-63
2023/02/13 12:59:56;;;;;;;6.30;5.60;;;19.30;99.90;;;;;;5031261;28;20563;-63
2023/02/13 13:03:15;;;;;;;6.33;5.73;;;19.00;99.90;;;;;;5031916;28;20463;-63
2023/02/13 13:06:00;;;;;;;5.40;4.50;;;19.10;99.90;;;;;;5011832;28;20472;-62
2023/02/13 13:08:47;;;;;;;4.40;4.00;;;19.00;99.90;;;;;;5029165;28;20475;-63
2023/02/13 13:11:32;;;;;;;4.63;4.10;;;18.90;99.90;;;;;;5030450;28;20555;-63
2023/02/13 13:14:10;;;;;;;5.03;4.63;;;18.40;99.90;;;;;;5011264;28;20774;-63
2023/02/13 13:16:48;;;;;;;4.90;4.50;;;18.60;99.90;;;;;;5010986;28;20877;-63
2023/02/13 13:19:25;;;;;;;5.93;5.33;;;18.80;99.90;;;;;;5018505;28;20732;-63
2023/02/13 13:21:59;;;;;;;6.13;5.00;;;18.80;99.90;;;;;;5030011;28;20463;-63
2023/02/13 13:24:36;;;;;;;8.90;6.53;;;18.60;99.90;;;;;;5029485;28;20536;-63
2023/02/13 13:27:04;;;;;;;4.13;3.73;;;18.40;99.90;;;;;;5029148;28;20465;-63
2023/02/13 13:29:42;;;;;;;5.17;4.67;;;18.30;99.90;;;;;;5030547;28;20463;-63
2023/02/13 13:32:14;;;;;;;4.90;4.43;;;18.00;99.90;;;;;;5030241;28;20473;-62
2023/02/13 13:34:42;;;;;;;5.50;4.90;;;18.00;99.90;;;;;;5026200;28;20876;-61
2023/02/13 13:37:14;;;;;;;5.20;4.10;;;18.10;99.90;;;;;;5027425;28;20875;-62
2023/02/13 13:39:49;;;;;;;4.33;3.93;;;18.10;99.90;;;;;;5029367;28;20466;-61
2023/02/13 13:42:23;;;;;;;5.37;3.83;;;18.10;99.90;;;;;;5031724;28;20467;-63
2023/02/13 13:45:09;;;;;;;6.63;4.07;;;18.00;99.90;;;;;;5033362;28;20463;-63
2023/02/13 13:47:58;;;;;;;5.70;3.80;;;18.00;99.90;;;;;;5033289;28;20894;-61
2023/02/13 13:50:28;;;;;;;4.63;4.23;;;18.00;99.90;;;;;;5033691;28;20455;-63
2023/02/13 13:53:14;;;;;;;4.37;3.10;;;17.70;99.90;;;;;;5033707;28;20466;-63